createdAt,value
2023-03-10T00:01:15.290Z,93527.81
2023-03-10T00:03:41.684Z,93522.84
2023-03-10T00:06:09.689Z,93510.63
2023-03-10T00:08:36.192Z,93513.94
2023-03-10T00:11:02.587Z,93513.66
2023-03-10T00:13:29.715Z,93509.41
2023-03-10T00:15:56.190Z,93496.66
2023-03-10T00:18:22.796Z,93489.91
2023-03-10T00:20:50.714Z,93491.56
2023-03-10T00:23:17.255Z,93481.75
2023-03-10T00:25:43.930Z,93478.00
2023-03-10T00:28:10.317Z,93476.22
2023-03-10T00:30:37.391Z,93470.22
2023-03-10T00:33:03.878Z,93482.38
2023-03-10T00:35:30.591Z,93468.22
2023-03-10T00:37:57.016Z,93460.88
2023-03-10T00:40:23.489Z,93467.19
2023-03-10T00:42:50.561Z,93468.34
2023-03-10T00:45:17.751Z,93458.50
2023-03-10T00:47:44.819Z,93451.41
2023-03-10T00:50:11.759Z,93447.72
2023-03-10T00:52:38.196Z,93445.75
2023-03-10T00:55:05.277Z,93446.03
2023-03-10T00:57:31.664Z,93437.56
2023-03-10T00:59:58.050Z,93436.16
2023-03-10T01:02:24.702Z,93429.78
2023-03-10T01:04:51.765Z,93424.97
2023-03-10T01:07:18.137Z,93416.16
2023-03-10T01:09:44.568Z,93412.34
2023-03-10T01:12:11.082Z,93411.50
2023-03-10T01:14:37.690Z,93406.81
2023-03-10T01:17:10.564Z,93395.66
2023-03-10T01:19:37.077Z,93385.91
2023-03-10T01:22:04.406Z,93384.03
2023-03-10T01:24:30.871Z,93377.19
2023-03-10T01:26:57.252Z,93377.19
2023-03-10T01:29:23.632Z,93377.75
2023-03-10T01:31:50.198Z,93353.66
2023-03-10T01:34:16.760Z,93348.00
2023-03-10T01:36:43.123Z,93355.91
2023-03-10T01:39:10.142Z,93347.91
2023-03-10T01:41:40.308Z,93331.66
2023-03-10T01:44:14.000Z,93339.34
2023-03-10T01:46:48.917Z,93331.91
2023-03-10T01:49:24.114Z,93319.00
2023-03-10T01:51:56.683Z,93317.59
2023-03-10T01:54:28.425Z,93317.53
2023-03-10T01:56:56.981Z,93307.97
2023-03-10T01:59:25.708Z,93300.56
2023-03-10T02:01:56.136Z,93296.47
2023-03-10T02:04:29.650Z,93291.78
2023-03-10T02:06:57.015Z,93282.47
2023-03-10T02:09:25.033Z,93281.03
2023-03-10T02:11:52.189Z,93271.78
2023-03-10T02:14:18.821Z,93268.63
2023-03-10T02:16:45.918Z,93265.38
2023-03-10T02:19:26.660Z,93259.81
2023-03-10T02:22:00.837Z,93249.81
2023-03-10T02:24:34.879Z,93249.69
2023-03-10T02:27:06.173Z,93248.13
2023-03-10T02:29:52.503Z,93244.72
2023-03-10T02:32:25.366Z,93242.78
2023-03-10T02:34:51.865Z,93241.41
2023-03-10T02:37:20.737Z,93235.03
2023-03-10T02:39:47.544Z,93230.78
2023-03-10T02:42:14.516Z,93218.41
2023-03-10T02:44:43.434Z,93206.41
2023-03-10T02:47:12.086Z,93216.53
2023-03-10T02:49:40.488Z,93214.47
2023-03-10T02:52:11.912Z,93199.75
2023-03-10T02:54:38.281Z,93199.69
2023-03-10T02:57:05.074Z,93205.09
2023-03-10T02:59:31.592Z,93200.00
2023-03-10T03:01:58.670Z,93204.22
2023-03-10T03:04:25.103Z,93202.31
2023-03-10T03:06:51.638Z,93193.25
2023-03-10T03:09:20.287Z,93199.53
2023-03-10T03:11:47.017Z,93199.47
2023-03-10T03:14:13.917Z,93194.91
2023-03-10T03:16:40.446Z,93194.44
2023-03-10T03:19:10.172Z,93193.03
2023-03-10T03:21:38.123Z,93180.44
2023-03-10T03:24:04.851Z,93171.66
2023-03-10T03:26:31.217Z,93182.63
2023-03-10T03:29:03.880Z,93191.81
2023-03-10T03:31:33.540Z,93187.41
2023-03-10T03:34:29.840Z,93185.75
2023-03-10T03:36:59.603Z,93178.44
2023-03-10T03:39:31.762Z,93183.97
2023-03-10T03:42:01.566Z,93199.38
2023-03-10T03:44:33.739Z,93199.94
2023-03-10T03:47:00.468Z,93217.22
2023-03-10T03:49:27.843Z,93210.81
2023-03-10T03:51:55.081Z,93211.56
2023-03-10T03:54:23.149Z,93227.97
2023-03-10T03:56:49.701Z,93222.09
2023-03-10T03:59:16.413Z,93240.81
2023-03-10T04:01:43.879Z,93273.28
2023-03-10T04:04:10.492Z,93299.84
2023-03-10T04:06:37.098Z,93288.88
2023-03-10T04:09:06.540Z,93298.31
2023-03-10T04:11:33.686Z,93294.75
2023-03-10T04:14:00.324Z,93297.72
2023-03-10T04:16:30.176Z,93299.16
2023-03-10T04:18:56.729Z,93299.28
2023-03-10T04:21:23.760Z,93300.91
2023-03-10T04:23:52.506Z,93304.56
2023-03-10T04:26:24.823Z,93305.25
2023-03-10T04:28:51.398Z,93300.28
2023-03-10T04:31:21.534Z,93300.94
2023-03-10T04:33:49.955Z,93292.59
2023-03-10T04:36:17.715Z,93286.31
2023-03-10T04:38:46.825Z,93291.59
2023-03-10T04:41:13.518Z,93297.81
2023-03-10T04:43:47.113Z,93297.59
2023-03-10T04:46:14.523Z,93284.91
2023-03-10T04:48:45.973Z,93295.94
2023-03-10T04:51:13.228Z,93283.78
2023-03-10T04:53:47.782Z,93288.47
2023-03-10T04:56:14.861Z,93303.00
2023-03-10T04:58:41.908Z,93298.03
2023-03-10T05:01:13.639Z,93295.16
2023-03-10T05:03:45.038Z,93296.16
2023-03-10T05:06:13.158Z,93292.47
2023-03-10T05:08:40.844Z,93307.25
2023-03-10T05:11:08.139Z,93291.59
2023-03-10T05:13:34.979Z,93292.84
2023-03-10T05:16:02.540Z,93288.50
2023-03-10T05:18:29.958Z,93292.31
2023-03-10T05:20:58.157Z,93296.09
2023-03-10T05:23:26.249Z,93285.09
2023-03-10T05:25:52.837Z,93292.00
2023-03-10T05:28:20.550Z,93305.78
2023-03-10T05:30:47.122Z,93297.88
2023-03-10T05:33:13.629Z,93299.25
2023-03-10T05:35:41.291Z,93289.81
2023-03-10T05:38:08.179Z,93309.47
2023-03-10T05:40:35.886Z,93303.03
2023-03-10T05:43:02.373Z,93303.50
2023-03-10T05:45:29.381Z,93286.16
2023-03-10T05:47:55.900Z,93296.16
2023-03-10T05:50:22.398Z,93304.72
2023-03-10T05:52:49.959Z,93284.69
2023-03-10T05:55:18.660Z,93278.66
2023-03-10T05:57:46.322Z,93269.53
2023-03-10T06:00:14.890Z,93271.38
2023-03-10T06:02:45.044Z,93260.47
2023-03-10T06:05:12.874Z,93256.59
2023-03-10T06:07:40.378Z,93250.47
2023-03-10T06:10:09.461Z,93252.03
2023-03-10T06:12:35.995Z,93250.25
2023-03-10T06:15:02.511Z,93255.34
2023-03-10T06:17:28.956Z,93240.78
2023-03-10T06:19:55.473Z,93225.09
2023-03-10T06:22:21.840Z,93246.78
2023-03-10T06:24:48.302Z,93233.91
2023-03-10T06:27:15.605Z,93207.56
2023-03-10T06:29:42.053Z,93220.88
2023-03-10T06:32:08.564Z,93219.72
2023-03-10T06:34:34.954Z,93214.59
2023-03-10T06:37:01.474Z,93195.41
2023-03-10T06:39:28.426Z,93210.44
2023-03-10T06:41:54.934Z,93195.47
2023-03-10T06:44:22.078Z,93199.66
2023-03-10T06:46:48.599Z,93211.13
2023-03-10T06:49:15.182Z,93223.75
2023-03-10T06:51:41.683Z,93216.94
2023-03-10T06:54:09.208Z,93207.78
2023-03-10T06:56:38.634Z,93183.25
2023-03-10T06:59:08.035Z,93169.19
2023-03-10T07:01:35.335Z,93162.56
2023-03-10T07:04:07.264Z,93162.28
2023-03-10T07:06:33.999Z,93156.56
2023-03-10T07:09:00.537Z,93150.19
2023-03-10T07:11:27.510Z,93155.63
2023-03-10T07:13:54.310Z,93156.84
2023-03-10T07:16:21.476Z,93161.03
2023-03-10T07:18:48.670Z,93153.84
2023-03-10T07:21:17.388Z,93168.94
2023-03-10T07:23:44.541Z,93164.00
2023-03-10T07:26:13.752Z,93172.81
2023-03-10T07:28:40.399Z,93171.31
2023-03-10T07:31:08.974Z,93186.28
2023-03-10T07:33:36.091Z,93182.88
2023-03-10T07:36:05.562Z,93177.44
2023-03-10T07:38:32.331Z,93175.13
2023-03-10T07:41:00.856Z,93165.97
2023-03-10T07:43:28.442Z,93180.47
2023-03-10T07:45:55.311Z,93174.66
2023-03-10T07:48:21.893Z,93176.38
2023-03-10T07:50:55.571Z,93170.69
2023-03-10T07:53:22.692Z,93154.75
2023-03-10T07:55:52.346Z,93158.72
2023-03-10T07:58:19.403Z,93159.88
2023-03-10T08:00:47.026Z,93166.59
2023-03-10T08:03:13.591Z,93160.91
2023-03-10T08:05:43.547Z,93139.38
2023-03-10T08:08:10.052Z,93136.66
2023-03-10T08:10:37.564Z,93136.28
2023-03-10T08:13:04.054Z,93137.16
2023-03-10T08:15:30.535Z,93143.22
2023-03-10T08:17:56.965Z,93141.47
2023-03-10T08:20:26.523Z,93137.19
2023-03-10T08:22:53.092Z,93121.47
2023-03-10T08:25:19.688Z,93125.25
2023-03-10T08:27:46.893Z,93124.00
2023-03-10T08:30:14.045Z,93130.94
2023-03-10T08:32:41.515Z,93126.88
2023-03-10T08:35:09.099Z,93117.72
2023-03-10T08:37:35.730Z,93121.16
2023-03-10T08:40:07.092Z,93116.72
2023-03-10T08:42:35.756Z,93114.81
2023-03-10T08:45:03.716Z,93112.13
2023-03-10T08:47:32.321Z,93111.06
2023-03-10T08:49:59.200Z,93112.69
2023-03-10T08:52:25.784Z,93120.63
2023-03-10T08:54:52.324Z,93122.94
2023-03-10T08:57:19.586Z,93126.06
2023-03-10T08:59:46.236Z,93124.09
2023-03-10T09:02:14.627Z,93133.31
2023-03-10T09:04:41.322Z,93139.84
2023-03-10T09:07:07.814Z,93133.72
2023-03-10T09:09:34.252Z,93121.84
2023-03-10T09:12:00.941Z,93133.19
2023-03-10T09:14:27.551Z,93133.47
2023-03-10T09:16:54.121Z,93129.91
2023-03-10T09:19:21.387Z,93122.97
2023-03-10T09:21:47.983Z,93133.78
2023-03-10T09:24:14.615Z,93130.19
2023-03-10T09:26:49.875Z,93122.09
2023-03-10T09:29:16.766Z,93136.16
2023-03-10T09:31:44.737Z,93133.78
2023-03-10T09:34:11.450Z,93113.66
2023-03-10T09:36:38.822Z,93128.44
2023-03-10T09:39:05.693Z,93135.19
2023-03-10T09:42:08.262Z,93146.22
2023-03-10T09:44:42.561Z,93152.06
2023-03-10T09:47:24.452Z,93136.00
2023-03-10T09:50:02.754Z,93140.38
2023-03-10T09:52:40.608Z,93150.41
2023-03-10T09:55:18.383Z,93165.38
2023-03-10T09:57:47.274Z,93178.75
2023-03-10T10:00:21.724Z,93176.97
2023-03-10T10:03:03.565Z,93189.84
2023-03-10T10:05:33.393Z,93206.03
2023-03-10T10:08:05.471Z,93209.88
2023-03-10T10:10:36.047Z,93215.75
2023-03-10T10:13:12.904Z,93238.06
2023-03-10T10:15:43.786Z,93253.19
2023-03-10T10:18:24.092Z,93235.72
2023-03-10T10:20:58.224Z,93292.41
2023-03-10T10:23:37.944Z,93282.81
2023-03-10T10:26:10.964Z,93283.72
2023-03-10T10:28:42.732Z,93279.91
2023-03-10T10:31:12.088Z,93300.13
2023-03-10T10:33:53.729Z,93309.84
2023-03-10T10:36:20.319Z,93313.78
2023-03-10T10:38:49.829Z,93300.38
2023-03-10T10:41:20.482Z,93259.66
2023-03-10T10:43:50.022Z,93253.81
2023-03-10T10:46:25.208Z,93255.72
2023-03-10T10:49:01.640Z,93264.59
2023-03-10T10:51:30.140Z,93247.66
2023-03-10T10:53:58.348Z,93238.09
2023-03-10T10:56:27.870Z,93237.50
2023-03-10T10:59:03.560Z,93226.59
2023-03-10T11:01:47.883Z,93226.00
2023-03-10T11:04:17.102Z,93243.81
2023-03-10T11:06:44.443Z,93228.88
2023-03-10T11:09:14.468Z,93227.38
2023-03-10T11:11:51.977Z,93219.19
2023-03-10T11:14:34.158Z,93200.97
2023-03-10T11:17:06.222Z,93204.28
2023-03-10T11:19:42.659Z,93196.84
2023-03-10T11:22:21.457Z,93194.06
2023-03-10T11:24:55.644Z,93175.28
2023-03-10T11:27:35.244Z,93189.44
2023-03-10T11:30:09.542Z,93181.94
2023-03-10T11:32:48.462Z,93172.91
2023-03-10T11:35:23.786Z,93157.66
2023-03-10T11:37:54.711Z,93174.06
2023-03-10T11:40:29.140Z,93160.84
2023-03-10T11:43:01.034Z,93169.03
2023-03-10T11:45:32.175Z,93160.28
2023-03-10T11:48:22.790Z,93157.19
2023-03-10T11:50:52.445Z,93168.75
2023-03-10T11:53:29.183Z,93148.31
2023-03-10T11:55:59.314Z,93152.00
2023-03-10T11:58:41.063Z,93143.94
2023-03-10T12:01:11.680Z,93125.47
2023-03-10T12:03:47.136Z,93112.34
2023-03-10T12:06:19.107Z,93169.44
2023-03-10T12:08:49.334Z,93128.09
2023-03-10T12:11:21.276Z,93120.06
2023-03-10T12:13:51.525Z,93130.09
2023-03-10T12:16:21.892Z,93108.78
2023-03-10T12:18:50.613Z,93120.84
2023-03-10T12:21:21.726Z,93118.53
2023-03-10T12:23:49.482Z,93116.44
2023-03-10T12:26:51.392Z,93188.31
2023-03-10T12:29:34.516Z,93157.25
2023-03-10T12:32:01.393Z,93126.88
2023-03-10T12:34:33.423Z,93134.91
2023-03-10T12:37:06.518Z,93118.94
2023-03-10T12:39:38.180Z,93185.13
2023-03-10T12:42:34.279Z,93160.19
2023-03-10T12:45:21.199Z,93118.13
2023-03-10T12:47:55.756Z,93143.91
2023-03-10T12:50:31.879Z,93140.03
2023-03-10T12:53:05.597Z,93143.59
2023-03-10T12:55:32.798Z,93147.69
2023-03-10T12:58:20.761Z,93137.69
2023-03-10T13:00:50.233Z,93144.66
2023-03-10T13:03:27.376Z,93123.59
2023-03-10T13:06:00.642Z,93122.97
2023-03-10T13:08:34.508Z,93156.97
2023-03-10T13:11:02.614Z,93145.69
2023-03-10T13:13:32.674Z,93147.56
2023-03-10T13:16:00.998Z,93136.50
2023-03-10T13:18:27.458Z,93178.78
2023-03-10T13:20:54.072Z,93144.84
2023-03-10T13:23:23.591Z,93160.72
2023-03-10T13:25:54.466Z,93153.53
2023-03-10T13:28:21.072Z,93169.44
2023-03-10T13:30:48.141Z,93229.16
2023-03-10T13:33:19.161Z,93167.00
2023-03-10T13:35:46.507Z,93158.47
2023-03-10T13:38:16.015Z,93136.44
2023-03-10T13:40:44.645Z,93167.19
2023-03-10T13:43:32.280Z,93150.78
2023-03-10T13:46:00.878Z,93186.34
2023-03-10T13:48:29.523Z,93169.50
2023-03-10T13:51:18.015Z,93196.31
2023-03-10T13:53:45.393Z,93180.19
2023-03-10T13:56:18.541Z,93167.22
2023-03-10T13:58:46.983Z,93176.97
2023-03-10T14:01:18.357Z,93173.59
2023-03-10T14:03:57.252Z,93172.56
2023-03-10T14:06:25.541Z,93173.47
2023-03-10T14:08:52.355Z,93207.97
2023-03-10T14:11:34.046Z,93197.97
2023-03-10T14:14:01.734Z,93269.19
2023-03-10T14:16:46.805Z,93182.44
2023-03-10T14:19:13.961Z,93189.59
2023-03-10T14:21:52.405Z,93222.31
2023-03-10T14:24:27.210Z,93249.50
2023-03-10T14:26:54.590Z,93211.63
2023-03-10T14:29:21.176Z,93203.34
2023-03-10T14:31:51.038Z,93186.88
2023-03-10T14:34:17.443Z,93181.84
2023-03-10T14:36:43.910Z,93195.41
2023-03-10T14:39:10.469Z,93181.88
2023-03-10T14:41:37.003Z,93215.91
2023-03-10T14:44:03.563Z,93190.88
2023-03-10T14:46:32.083Z,93190.81
2023-03-10T14:48:59.425Z,93191.50
2023-03-10T14:51:35.388Z,93182.63
2023-03-10T14:54:02.388Z,93157.78
2023-03-10T14:56:29.767Z,93171.16
2023-03-10T14:58:57.574Z,93205.88
2023-03-10T15:01:24.147Z,93194.13
2023-03-10T15:03:50.704Z,93204.34
2023-03-10T15:06:22.063Z,93224.91
2023-03-10T15:08:48.547Z,93230.91
2023-03-10T15:11:23.997Z,93281.69
2023-03-10T15:13:57.478Z,93254.31
2023-03-10T15:16:23.911Z,93231.56
2023-03-10T15:18:52.360Z,93213.03
2023-03-10T15:21:19.597Z,93220.41
2023-03-10T15:23:48.307Z,93204.06
2023-03-10T15:26:14.762Z,93229.06
2023-03-10T15:28:41.199Z,93227.38
2023-03-10T15:31:07.590Z,93208.81
2023-03-10T15:33:33.996Z,93232.50
2023-03-10T15:36:00.540Z,93222.72
2023-03-10T15:38:27.713Z,93219.00
2023-03-10T15:40:54.096Z,93208.75
2023-03-10T15:43:20.572Z,93222.81
2023-03-10T15:45:50.527Z,93218.75
2023-03-10T15:48:17.828Z,93263.56
2023-03-10T15:50:46.375Z,93219.56
2023-03-10T15:53:13.177Z,93214.13
2023-03-10T15:55:41.336Z,93216.91
2023-03-10T15:58:07.861Z,93211.59
2023-03-10T16:00:34.294Z,93209.59
2023-03-10T16:03:00.725Z,93225.00
2023-03-10T16:05:27.489Z,93227.75
2023-03-10T16:07:53.902Z,93210.38
2023-03-10T16:10:20.901Z,93203.28
2023-03-10T16:12:48.068Z,93224.75
2023-03-10T16:15:17.622Z,93231.28
2023-03-10T16:17:44.678Z,93221.50
2023-03-10T16:20:13.044Z,93235.13
2023-03-10T16:22:40.495Z,93241.97
2023-03-10T16:25:10.084Z,93262.44
2023-03-10T16:27:36.485Z,93280.78
2023-03-10T16:30:04.664Z,93254.78
2023-03-10T16:32:31.242Z,93261.44
2023-03-10T16:34:59.226Z,93293.06
2023-03-10T16:37:26.943Z,93267.00
2023-03-10T16:39:53.560Z,93289.19
2023-03-10T16:42:20.151Z,93299.63
2023-03-10T16:44:46.912Z,93293.97
2023-03-10T16:47:15.678Z,93311.72
2023-03-10T16:49:43.608Z,93313.97
2023-03-10T16:52:10.213Z,93312.31
2023-03-10T16:54:37.150Z,93315.53
2023-03-10T16:57:06.262Z,93311.22
2023-03-10T16:59:33.407Z,93317.44
2023-03-10T17:01:59.899Z,93345.72
2023-03-10T17:04:27.394Z,93331.88
2023-03-10T17:06:53.850Z,93331.22
2023-03-10T17:09:20.276Z,93319.34
2023-03-10T17:11:50.215Z,93316.69
2023-03-10T17:14:18.277Z,93303.28
2023-03-10T17:16:45.625Z,93430.28
2023-03-10T17:19:14.471Z,93328.69
2023-03-10T17:21:45.977Z,93340.44
2023-03-10T17:24:13.634Z,93381.34
2023-03-10T17:26:40.407Z,93340.75
2023-03-10T17:29:06.892Z,93377.03
2023-03-10T17:31:33.520Z,93370.81
2023-03-10T17:34:01.463Z,93383.66
2023-03-10T17:36:28.327Z,93386.19
2023-03-10T17:38:57.430Z,93386.09
2023-03-10T17:41:24.588Z,93411.22
2023-03-10T17:43:52.538Z,93431.31
2023-03-10T17:46:21.041Z,93402.66
2023-03-10T17:48:48.297Z,93412.47
2023-03-10T17:51:15.816Z,93404.59
2023-03-10T17:53:42.580Z,93458.22
2023-03-10T17:56:10.336Z,93421.19
2023-03-10T17:58:36.862Z,93472.16
2023-03-10T18:01:08.078Z,93427.78
2023-03-10T18:03:38.154Z,93436.75
2023-03-10T18:06:11.948Z,93444.47
2023-03-10T18:08:38.383Z,93454.63
2023-03-10T18:11:06.097Z,93452.88
2023-03-10T18:13:33.506Z,93456.47
2023-03-10T18:15:59.923Z,93428.53
2023-03-10T18:18:26.555Z,93423.53
2023-03-10T18:20:52.976Z,93466.97
2023-03-10T18:23:19.956Z,93438.94
2023-03-10T18:25:47.006Z,93440.16
2023-03-10T18:28:18.515Z,93458.56
2023-03-10T18:30:47.899Z,93423.66
2023-03-10T18:33:18.521Z,93429.88
2023-03-10T18:35:46.303Z,93434.75
2023-03-10T18:38:14.806Z,93434.25
2023-03-10T18:40:41.684Z,93436.94
2023-03-10T18:43:08.754Z,93433.72
2023-03-10T18:45:35.557Z,93446.47
2023-03-10T18:48:02.736Z,93451.13
2023-03-10T18:50:36.478Z,93433.28
2023-03-10T18:53:03.026Z,93429.66
2023-03-10T18:55:29.628Z,93467.03
2023-03-10T18:57:56.324Z,93448.56
2023-03-10T19:00:47.766Z,93473.91
2023-03-10T19:03:15.807Z,93472.25
2023-03-10T19:05:43.368Z,93491.84
2023-03-10T19:08:10.441Z,93457.97
2023-03-10T19:10:37.505Z,93432.91
2023-03-10T19:13:04.095Z,93446.63
2023-03-10T19:15:30.697Z,93435.66
2023-03-10T19:17:57.426Z,93429.59
2023-03-10T19:20:24.625Z,93442.19
2023-03-10T19:22:51.610Z,93436.03
2023-03-10T19:25:19.441Z,93426.75
2023-03-10T19:27:48.080Z,93420.22
2023-03-10T19:30:17.307Z,93451.56
2023-03-10T19:32:44.633Z,93434.47
2023-03-10T19:35:12.326Z,93447.81
2023-03-10T19:37:42.723Z,93419.75
2023-03-10T19:40:13.838Z,93419.56
2023-03-10T19:42:42.083Z,93389.50
2023-03-10T19:45:09.951Z,93423.66
2023-03-10T19:47:36.464Z,93441.06
2023-03-10T19:50:03.889Z,93411.88
2023-03-10T19:52:40.813Z,93431.56
2023-03-10T19:55:10.752Z,93452.25
2023-03-10T19:57:37.600Z,93425.16
2023-03-10T20:00:06.505Z,93405.56
2023-03-10T20:02:32.967Z,93402.81
2023-03-10T20:04:59.817Z,93405.63
2023-03-10T20:07:26.493Z,93402.53
2023-03-10T20:09:55.836Z,93453.50
2023-03-10T20:12:23.278Z,93434.97
2023-03-10T20:14:50.015Z,93413.28
2023-03-10T20:17:19.148Z,93458.53
2023-03-10T20:19:45.704Z,93417.16
2023-03-10T20:22:17.815Z,93405.34
2023-03-10T20:24:44.720Z,93400.03
2023-03-10T20:27:11.953Z,93443.59
2023-03-10T20:29:39.315Z,93407.56
2023-03-10T20:32:06.991Z,93415.41
2023-03-10T20:34:40.415Z,93419.28
2023-03-10T20:37:07.235Z,93430.31
2023-03-10T20:39:33.670Z,93419.13
2023-03-10T20:42:02.122Z,93418.50
2023-03-10T20:44:28.685Z,93420.91
2023-03-10T20:46:55.833Z,93425.41
2023-03-10T20:49:22.328Z,93429.75
2023-03-10T20:51:49.293Z,93411.09
2023-03-10T20:54:15.743Z,93454.56
2023-03-10T20:56:42.556Z,93452.91
2023-03-10T20:59:08.952Z,93461.50
2023-03-10T21:01:41.540Z,93468.56
2023-03-10T21:04:08.818Z,93472.66
2023-03-10T21:06:38.975Z,93449.47
2023-03-10T21:09:05.765Z,93485.13
2023-03-10T21:11:32.530Z,93516.22
2023-03-10T21:14:02.351Z,93490.69
2023-03-10T21:16:29.201Z,93519.38
2023-03-10T21:18:55.993Z,93514.31
2023-03-10T21:21:24.132Z,93491.00
2023-03-10T21:23:53.835Z,93501.66
2023-03-10T21:26:21.016Z,93515.53
2023-03-10T21:28:48.011Z,93537.09
2023-03-10T21:31:15.050Z,93479.28
2023-03-10T21:33:41.778Z,93552.56
2023-03-10T21:36:11.172Z,93556.38
2023-03-10T21:38:38.490Z,93548.13
2023-03-10T21:41:05.736Z,93603.03
2023-03-10T21:43:32.177Z,93589.31
2023-03-10T21:45:58.645Z,93610.13
2023-03-10T21:48:25.198Z,93601.31
2023-03-10T21:50:52.138Z,93656.91
2023-03-10T21:53:19.970Z,93611.09
2023-03-10T21:55:47.306Z,93633.78
2023-03-10T21:58:13.921Z,93628.53
2023-03-10T22:00:43.985Z,93632.63
2023-03-10T22:03:10.682Z,93630.69
2023-03-10T22:05:37.206Z,93650.25
2023-03-10T22:08:04.051Z,93640.56
2023-03-10T22:10:30.698Z,93641.16
2023-03-10T22:12:58.055Z,93645.31
2023-03-10T22:15:26.432Z,93664.41
2023-03-10T22:17:54.533Z,93684.31
2023-03-10T22:20:23.483Z,93653.09
2023-03-10T22:22:50.738Z,93666.72
2023-03-10T22:25:17.850Z,93687.19
2023-03-10T22:27:48.925Z,93716.47
2023-03-10T22:30:16.513Z,93703.03
2023-03-10T22:32:43.394Z,93704.75
2023-03-10T22:35:10.687Z,93696.34
2023-03-10T22:37:37.183Z,93706.91
2023-03-10T22:40:04.883Z,93737.56
2023-03-10T22:42:31.364Z,93735.16
2023-03-10T22:44:57.869Z,93733.34
2023-03-10T22:47:25.198Z,93722.69
2023-03-10T22:49:51.625Z,93731.69
2023-03-10T22:52:18.034Z,93737.94
2023-03-10T22:54:44.431Z,93739.34
2023-03-10T22:57:14.282Z,93766.25
2023-03-10T22:59:41.221Z,93776.22
2023-03-10T23:02:07.719Z,93863.53
2023-03-10T23:04:34.869Z,93835.28
2023-03-10T23:07:01.360Z,93788.78
2023-03-10T23:09:27.895Z,93783.16
2023-03-10T23:11:54.540Z,93815.06
2023-03-10T23:14:21.031Z,93786.91
2023-03-10T23:16:47.641Z,93819.59
2023-03-10T23:19:14.032Z,93901.66
2023-03-10T23:21:41.108Z,93830.53
2023-03-10T23:24:07.618Z,93841.66
2023-03-10T23:26:34.384Z,93861.13
2023-03-10T23:29:02.132Z,93866.06
2023-03-10T23:31:28.792Z,93870.88
2023-03-10T23:33:55.336Z,93849.34
2023-03-10T23:36:21.826Z,93860.31
2023-03-10T23:38:48.886Z,93891.25
2023-03-10T23:41:15.504Z,93916.75
2023-03-10T23:43:42.541Z,93860.47
2023-03-10T23:46:09.080Z,93891.88
2023-03-10T23:48:35.534Z,93888.94
2023-03-10T23:51:02.215Z,93922.59
2023-03-10T23:53:29.335Z,93880.28
2023-03-10T23:55:58.052Z,93902.53
2023-03-10T23:58:24.830Z,93908.72
